createdAt,value
2023-02-18T00:00:33.047Z,2.95
2023-02-18T00:02:59.940Z,2.08
2023-02-18T00:05:26.877Z,2.53
2023-02-18T00:07:53.773Z,2.83
2023-02-18T00:10:20.879Z,2.95
2023-02-18T00:12:47.779Z,3.13
2023-02-18T00:15:14.902Z,2.42
2023-02-18T00:17:41.856Z,3.58
2023-02-18T00:20:09.151Z,2.47
2023-02-18T00:22:36.027Z,2.42
2023-02-18T00:25:05.870Z,2.70
2023-02-18T00:27:33.089Z,2.45
2023-02-18T00:30:00.160Z,3.30
2023-02-18T00:32:27.120Z,3.00
2023-02-18T00:34:54.086Z,2.53
2023-02-18T00:37:21.027Z,2.15
2023-02-18T00:39:48.038Z,2.38
2023-02-18T00:42:14.932Z,2.35
2023-02-18T00:44:41.799Z,2.28
2023-02-18T00:47:08.862Z,2.55
2023-02-18T00:49:35.850Z,3.10
2023-02-18T00:52:02.863Z,2.33
2023-02-18T00:54:29.917Z,2.72
2023-02-18T00:56:56.817Z,2.65
2023-02-18T00:59:23.728Z,2.13
2023-02-18T01:01:50.791Z,3.05
2023-02-18T01:04:17.774Z,2.47
2023-02-18T01:06:44.691Z,2.72
2023-02-18T01:09:11.601Z,3.00
2023-02-18T01:11:38.614Z,2.25
2023-02-18T01:14:05.560Z,2.70
2023-02-18T01:16:33.236Z,2.60
2023-02-18T01:19:00.220Z,2.65
2023-02-18T01:21:27.180Z,2.45
2023-02-18T01:23:54.152Z,2.30
2023-02-18T01:26:21.170Z,2.47
2023-02-18T01:28:55.245Z,2.63
2023-02-18T01:31:22.335Z,2.35
2023-02-18T01:33:49.335Z,4.32
2023-02-18T01:36:17.905Z,2.58
2023-02-18T01:38:44.787Z,2.72
2023-02-18T01:41:11.995Z,2.72
2023-02-18T01:43:41.533Z,2.33
2023-02-18T01:46:08.738Z,2.83
2023-02-18T01:48:42.890Z,3.85
2023-02-18T01:51:11.965Z,2.30
2023-02-18T01:54:08.280Z,2.58
2023-02-18T01:56:42.517Z,2.90
2023-02-18T01:59:13.551Z,2.50
2023-02-18T02:01:43.606Z,2.83
2023-02-18T02:04:11.054Z,2.42
2023-02-18T02:06:38.182Z,2.35
2023-02-18T02:09:08.236Z,2.28
2023-02-18T02:12:12.293Z,3.08
2023-02-18T02:15:16.724Z,2.50
2023-02-18T02:18:04.806Z,2.97
2023-02-18T02:21:08.424Z,2.28
2023-02-18T02:24:14.922Z,2.72
2023-02-18T02:26:57.096Z,2.38
2023-02-18T02:29:55.242Z,2.22
2023-02-18T02:32:24.960Z,2.38
2023-02-18T02:35:13.927Z,2.70
2023-02-18T02:37:50.018Z,2.65
2023-02-18T02:40:32.014Z,2.22
2023-02-18T02:43:26.284Z,2.17
2023-02-18T02:46:13.887Z,2.47
2023-02-18T02:48:50.223Z,2.22
2023-02-18T02:51:37.092Z,2.20
2023-02-18T02:54:19.081Z,2.20
2023-02-18T02:56:46.031Z,2.60
2023-02-18T02:59:24.625Z,2.92
2023-02-18T03:01:57.378Z,2.40
2023-02-18T03:04:35.159Z,2.95
2023-02-18T03:07:04.665Z,2.67
2023-02-18T03:09:51.099Z,2.20
2023-02-18T03:12:47.145Z,2.22
2023-02-18T03:15:43.768Z,2.85
2023-02-18T03:18:25.680Z,2.05
2023-02-18T03:21:00.575Z,2.20
2023-02-18T03:23:35.367Z,2.30
2023-02-18T03:26:04.508Z,2.30
2023-02-18T03:28:32.391Z,2.22
2023-02-18T03:31:11.418Z,2.17
2023-02-18T03:33:43.549Z,2.30
2023-02-18T03:36:10.830Z,2.42
2023-02-18T03:38:46.224Z,2.40
2023-02-18T03:41:13.214Z,2.17
2023-02-18T03:43:41.674Z,2.60
2023-02-18T03:46:09.183Z,1.95
2023-02-18T03:48:37.204Z,2.65
2023-02-18T03:51:04.272Z,2.50
2023-02-18T03:53:31.183Z,2.15
2023-02-18T03:56:00.269Z,2.25
2023-02-18T03:58:27.264Z,2.95
2023-02-18T04:00:54.348Z,2.00
2023-02-18T04:03:21.463Z,2.75
2023-02-18T04:05:48.385Z,1.88
2023-02-18T04:08:15.320Z,2.10
2023-02-18T04:10:42.422Z,2.22
2023-02-18T04:13:09.369Z,2.53
2023-02-18T04:15:37.106Z,2.33
2023-02-18T04:18:04.266Z,2.63
2023-02-18T04:20:31.553Z,2.28
2023-02-18T04:23:00.055Z,2.28
2023-02-18T04:25:27.396Z,2.30
2023-02-18T04:27:54.357Z,2.42
2023-02-18T04:30:21.447Z,2.50
2023-02-18T04:32:48.372Z,2.42
2023-02-18T04:35:15.494Z,1.95
2023-02-18T04:37:45.445Z,2.20
2023-02-18T04:40:12.909Z,2.28
2023-02-18T04:42:39.898Z,2.53
2023-02-18T04:45:07.384Z,2.25
2023-02-18T04:47:34.372Z,2.65
2023-02-18T04:50:01.310Z,1.80
2023-02-18T04:52:28.250Z,1.85
2023-02-18T04:54:55.199Z,3.00
2023-02-18T04:57:22.150Z,2.88
2023-02-18T04:59:50.467Z,2.40
2023-02-18T05:02:19.856Z,2.45
2023-02-18T05:04:46.742Z,2.90
2023-02-18T05:07:13.653Z,2.55
2023-02-18T05:09:40.602Z,2.55
2023-02-18T05:12:08.114Z,2.10
2023-02-18T05:14:35.051Z,2.88
2023-02-18T05:17:01.983Z,2.22
2023-02-18T05:19:28.900Z,3.00
2023-02-18T05:21:55.829Z,2.75
2023-02-18T05:24:22.808Z,2.30
2023-02-18T05:26:49.863Z,2.60
2023-02-18T05:29:17.082Z,2.45
2023-02-18T05:31:44.112Z,2.60
2023-02-18T05:34:11.209Z,2.42
2023-02-18T05:36:38.588Z,2.75
2023-02-18T05:39:05.645Z,4.32
2023-02-18T05:41:32.545Z,2.78
2023-02-18T05:44:17.789Z,3.00
2023-02-18T05:46:44.681Z,2.50
2023-02-18T05:49:11.873Z,3.35
2023-02-18T05:51:38.934Z,2.78
2023-02-18T05:54:05.857Z,2.22
2023-02-18T05:56:32.744Z,2.78
2023-02-18T05:58:59.640Z,2.58
2023-02-18T06:01:26.666Z,2.88
2023-02-18T06:03:56.055Z,2.80
2023-02-18T06:06:23.142Z,2.75
2023-02-18T06:08:50.031Z,2.83
2023-02-18T06:11:17.048Z,2.70
2023-02-18T06:13:44.021Z,3.38
2023-02-18T06:16:11.335Z,2.58
2023-02-18T06:18:38.560Z,3.83
2023-02-18T06:21:05.712Z,2.50
2023-02-18T06:23:34.805Z,2.60
2023-02-18T06:26:01.817Z,2.50
2023-02-18T06:28:31.060Z,3.58
2023-02-18T06:30:57.997Z,2.53
2023-02-18T06:33:25.211Z,2.90
2023-02-18T06:36:12.287Z,3.70
2023-02-18T06:38:41.528Z,3.45
2023-02-18T06:41:09.052Z,3.67
2023-02-18T06:43:36.359Z,3.15
2023-02-18T06:46:04.147Z,3.33
2023-02-18T06:48:31.445Z,2.75
2023-02-18T06:50:58.831Z,3.42
2023-02-18T06:53:26.120Z,2.70
2023-02-18T06:55:53.023Z,3.92
2023-02-18T06:58:19.909Z,2.95
2023-02-18T07:00:47.151Z,3.15
2023-02-18T07:03:14.703Z,3.17
2023-02-18T07:05:42.387Z,3.55
2023-02-18T07:08:09.768Z,3.47
2023-02-18T07:10:36.864Z,3.22
2023-02-18T07:13:04.449Z,3.90
2023-02-18T07:15:31.417Z,3.42
2023-02-18T07:17:58.325Z,3.33
2023-02-18T07:20:29.069Z,3.40
2023-02-18T07:22:56.304Z,3.35
2023-02-18T07:25:23.571Z,3.38
2023-02-18T07:27:51.270Z,3.78
2023-02-18T07:30:19.751Z,3.35
2023-02-18T07:32:46.979Z,3.67
2023-02-18T07:35:15.356Z,3.65
2023-02-18T07:37:46.875Z,3.13
2023-02-18T07:40:16.962Z,3.88
2023-02-18T07:42:43.895Z,3.90
2023-02-18T07:45:11.524Z,3.22
2023-02-18T07:47:41.843Z,3.67
2023-02-18T07:50:10.067Z,2.85
2023-02-18T07:52:37.029Z,4.05
2023-02-18T07:55:04.562Z,3.45
2023-02-18T07:57:33.720Z,3.30
2023-02-18T08:00:00.828Z,3.38
2023-02-18T08:02:27.839Z,3.60
2023-02-18T08:04:54.775Z,3.50
2023-02-18T08:07:22.651Z,3.67
2023-02-18T08:09:50.849Z,3.75
2023-02-18T08:12:18.022Z,3.70
2023-02-18T08:14:47.475Z,4.10
2023-02-18T08:17:14.428Z,3.45
2023-02-18T08:19:41.308Z,3.95
2023-02-18T08:22:08.182Z,3.83
2023-02-18T08:24:35.132Z,4.18
2023-02-18T08:27:02.092Z,4.22
2023-02-18T08:29:29.564Z,3.33
2023-02-18T08:31:59.714Z,4.03
2023-02-18T08:34:26.726Z,3.38
2023-02-18T08:36:53.663Z,3.25
2023-02-18T08:39:23.061Z,3.83
2023-02-18T08:41:49.969Z,4.28
2023-02-18T08:44:16.842Z,4.45
2023-02-18T08:46:43.922Z,3.65
2023-02-18T08:49:10.809Z,3.85
2023-02-18T08:51:37.966Z,3.25
2023-02-18T08:54:05.030Z,3.72
2023-02-18T08:56:32.735Z,3.80
2023-02-18T08:59:02.217Z,3.28
2023-02-18T09:01:29.180Z,4.40
2023-02-18T09:03:56.154Z,3.40
2023-02-18T09:06:23.256Z,2.97
2023-02-18T09:08:50.216Z,2.83
2023-02-18T09:11:19.613Z,4.07
2023-02-18T09:13:47.358Z,3.50
2023-02-18T09:16:18.812Z,3.33
2023-02-18T09:18:48.667Z,3.47
2023-02-18T09:21:16.932Z,3.75
2023-02-18T09:23:45.961Z,4.20
2023-02-18T09:26:15.143Z,3.10
2023-02-18T09:28:42.367Z,3.60
2023-02-18T09:31:12.828Z,3.40
2023-02-18T09:33:42.820Z,3.80
2023-02-18T09:36:10.328Z,3.78
2023-02-18T09:38:37.299Z,3.63
2023-02-18T09:41:09.025Z,3.58
2023-02-18T09:43:45.247Z,3.00
2023-02-18T09:46:28.518Z,3.55
2023-02-18T09:48:56.138Z,4.30
2023-02-18T09:51:23.089Z,3.85
2023-02-18T09:53:50.070Z,3.42
2023-02-18T09:56:28.583Z,3.10
2023-02-18T09:58:58.766Z,3.65
2023-02-18T10:01:30.903Z,4.88
2023-02-18T10:06:35.078Z,3.72
2023-02-18T10:09:29.187Z,3.10
2023-02-18T10:11:58.810Z,3.17
2023-02-18T10:14:26.174Z,3.80
2023-02-18T10:16:53.391Z,3.65
2023-02-18T10:19:20.308Z,3.30
2023-02-18T10:21:50.101Z,4.43
2023-02-18T10:24:30.144Z,3.95
2023-02-18T10:26:57.254Z,3.80
2023-02-18T10:29:25.296Z,3.35
2023-02-18T10:32:06.430Z,4.03
2023-02-18T10:34:43.666Z,4.38
2023-02-18T10:37:32.837Z,4.55
2023-02-18T10:40:36.738Z,3.45
2023-02-18T10:43:31.480Z,4.03
2023-02-18T10:46:01.437Z,3.75
2023-02-18T10:48:43.297Z,3.85
2023-02-18T10:51:21.704Z,4.00
2023-02-18T10:53:51.182Z,4.43
2023-02-18T10:56:48.516Z,4.05
2023-02-18T10:59:22.381Z,3.13
2023-02-18T11:02:12.092Z,3.78
2023-02-18T11:04:40.994Z,4.00
2023-02-18T11:07:21.219Z,3.40
2023-02-18T11:10:17.735Z,3.50
2023-02-18T11:12:53.242Z,4.07
2023-02-18T11:15:27.866Z,4.32
2023-02-18T11:18:11.693Z,3.92
2023-02-18T11:20:39.828Z,4.32
2023-02-18T11:23:06.767Z,4.15
2023-02-18T11:25:35.912Z,4.47
2023-02-18T11:28:08.803Z,3.70
2023-02-18T11:30:41.437Z,3.85
2023-02-18T11:33:43.018Z,3.63
2023-02-18T11:36:24.066Z,3.47
2023-02-18T11:38:56.788Z,3.75
2023-02-18T11:41:59.736Z,4.20
2023-02-18T11:44:29.512Z,3.83
2023-02-18T11:47:13.205Z,3.60
2023-02-18T11:49:41.585Z,3.70
2023-02-18T11:52:14.499Z,2.95
2023-02-18T11:55:00.840Z,3.63
2023-02-18T11:57:28.543Z,3.97
2023-02-18T11:59:55.929Z,4.28
2023-02-18T12:02:26.813Z,3.88
2023-02-18T12:05:01.954Z,4.28
2023-02-18T12:07:44.047Z,3.92
2023-02-18T12:10:29.779Z,4.50
2023-02-18T12:13:44.205Z,3.78
2023-02-18T12:16:32.732Z,3.70
2023-02-18T12:19:44.178Z,3.45
2023-02-18T12:22:27.033Z,3.63
2023-02-18T12:25:18.213Z,2.58
2023-02-18T12:28:04.548Z,3.05
2023-02-18T12:31:02.684Z,3.65
2023-02-18T12:33:50.984Z,3.10
2023-02-18T12:36:33.813Z,3.80
2023-02-18T12:39:40.264Z,3.88
2023-02-18T12:42:23.190Z,3.35
2023-02-18T12:45:04.932Z,2.95
2023-02-18T12:47:44.246Z,2.85
2023-02-18T12:50:15.364Z,3.00
2023-02-18T12:52:57.040Z,3.33
2023-02-18T12:55:44.218Z,3.60
2023-02-18T12:58:26.353Z,3.17
2023-02-18T13:01:23.689Z,3.50
2023-02-18T13:04:15.035Z,4.55
2023-02-18T13:06:51.096Z,4.63
2023-02-18T13:09:33.004Z,4.70
2023-02-18T13:12:06.850Z,3.83
2023-02-18T13:14:47.551Z,4.15
2023-02-18T13:17:16.088Z,3.80
2023-02-18T13:20:15.280Z,4.05
2023-02-18T13:22:42.401Z,3.95
2023-02-18T13:25:13.275Z,4.60
2023-02-18T13:28:00.714Z,4.15
2023-02-18T13:30:33.728Z,3.95
2023-02-18T13:33:09.874Z,3.75
2023-02-18T13:36:01.180Z,4.45
2023-02-18T13:38:51.360Z,4.13
2023-02-18T13:41:19.627Z,4.22
2023-02-18T13:43:48.003Z,4.07
2023-02-18T13:46:19.454Z,4.78
2023-02-18T13:48:52.387Z,4.03
2023-02-18T13:51:33.011Z,4.03
2023-02-18T13:54:25.252Z,3.72
2023-02-18T13:56:52.189Z,4.45
2023-02-18T13:59:20.326Z,3.67
2023-02-18T14:01:49.765Z,3.40
2023-02-18T14:04:44.751Z,3.50
2023-02-18T14:07:28.589Z,4.03
2023-02-18T14:09:59.880Z,2.83
2023-02-18T14:13:03.792Z,3.20
2023-02-18T14:15:30.714Z,2.88
2023-02-18T14:18:12.987Z,2.95
2023-02-18T14:20:39.937Z,2.97
2023-02-18T14:23:08.187Z,3.53
2023-02-18T14:25:38.740Z,2.92
2023-02-18T14:28:34.573Z,2.97
2023-02-18T14:31:29.772Z,3.40
2023-02-18T14:34:19.202Z,3.03
2023-02-18T14:37:12.304Z,2.25
2023-02-18T14:40:14.526Z,3.03
2023-02-18T14:42:48.123Z,3.50
2023-02-18T14:45:56.547Z,3.28
2023-02-18T14:48:57.567Z,3.30
2023-02-18T14:51:27.480Z,2.80
2023-02-18T14:53:56.848Z,3.30
2023-02-18T14:56:24.192Z,3.20
2023-02-18T14:58:57.573Z,2.88
2023-02-18T15:01:33.275Z,2.88
2023-02-18T15:04:06.961Z,3.13
2023-02-18T15:06:38.322Z,3.60
2023-02-18T15:09:22.548Z,3.88
2023-02-18T15:12:04.588Z,3.10
2023-02-18T15:14:36.903Z,3.30
2023-02-18T15:17:04.824Z,2.60
2023-02-18T15:19:41.542Z,3.00
2023-02-18T15:22:16.559Z,2.92
2023-02-18T15:24:44.017Z,2.30
2023-02-18T15:27:25.986Z,3.13
2023-02-18T15:29:58.025Z,3.30
2023-02-18T15:32:27.631Z,3.35
2023-02-18T15:35:15.684Z,3.25
2023-02-18T15:37:46.373Z,3.65
2023-02-18T15:40:20.418Z,4.25
2023-02-18T15:42:50.681Z,4.30
2023-02-18T15:45:31.754Z,3.80
2023-02-18T15:47:59.626Z,4.10
2023-02-18T15:50:38.164Z,3.50
2023-02-18T15:53:12.835Z,3.47
2023-02-18T15:55:41.682Z,3.30
2023-02-18T15:58:15.381Z,3.40
2023-02-18T16:00:56.659Z,3.50
2023-02-18T16:03:25.196Z,3.53
2023-02-18T16:06:20.200Z,4.72
2023-02-18T16:09:02.990Z,3.67
2023-02-18T16:11:35.248Z,5.90
2023-02-18T16:16:37.418Z,7.78
2023-02-18T16:19:04.965Z,5.90
2023-02-18T16:21:40.341Z,5.05
2023-02-18T16:24:27.354Z,5.03
2023-02-18T16:26:57.802Z,5.85
2023-02-18T16:29:36.107Z,5.00
2023-02-18T16:32:03.760Z,4.65
2023-02-18T16:34:30.704Z,5.18
2023-02-18T16:37:16.605Z,4.82
2023-02-18T16:39:43.660Z,5.57
2023-02-18T16:42:13.559Z,5.18
2023-02-18T16:44:40.551Z,5.95
2023-02-18T16:47:08.182Z,5.93
2023-02-18T16:49:35.555Z,5.75
2023-02-18T16:52:08.254Z,6.10
2023-02-18T16:54:35.460Z,6.88
2023-02-18T16:57:02.363Z,6.50
2023-02-18T16:59:29.245Z,6.32
2023-02-18T17:01:56.132Z,5.65
2023-02-18T17:04:23.701Z,5.53
2023-02-18T17:06:50.668Z,6.45
2023-02-18T17:09:21.307Z,5.68
2023-02-18T17:11:55.479Z,4.72
2023-02-18T17:14:23.384Z,6.57
2023-02-18T17:16:52.847Z,6.35
2023-02-18T17:19:22.514Z,6.93
2023-02-18T17:21:52.279Z,7.78
2023-02-18T17:24:19.210Z,6.80
2023-02-18T17:26:46.550Z,8.07
2023-02-18T17:29:14.016Z,8.60
2023-02-18T17:31:47.198Z,8.65
2023-02-18T17:34:41.147Z,8.32
2023-02-18T17:37:12.940Z,8.40
2023-02-18T17:39:39.954Z,8.27
2023-02-18T17:42:09.239Z,7.88
2023-02-18T17:44:36.328Z,7.63
2023-02-18T17:47:03.569Z,8.02
2023-02-18T17:49:30.481Z,7.93
2023-02-18T17:51:58.193Z,8.43
2023-02-18T17:54:28.363Z,8.45
2023-02-18T17:56:55.744Z,6.68
2023-02-18T17:59:22.792Z,6.20
2023-02-18T18:01:49.819Z,5.85
2023-02-18T18:04:19.894Z,6.35
2023-02-18T18:06:47.449Z,5.93
2023-02-18T18:09:14.430Z,6.05
2023-02-18T18:11:41.342Z,6.13
2023-02-18T18:14:10.759Z,6.20
2023-02-18T18:16:37.631Z,6.43
2023-02-18T18:19:06.800Z,6.18
2023-02-18T18:21:35.229Z,6.13
2023-02-18T18:24:02.689Z,5.68
2023-02-18T18:26:30.436Z,5.35
2023-02-18T18:28:57.606Z,6.03
2023-02-18T18:31:25.130Z,5.60
2023-02-18T18:33:53.173Z,5.82
2023-02-18T18:36:21.897Z,6.18
2023-02-18T18:38:48.818Z,5.05
2023-02-18T18:41:18.603Z,5.50
2023-02-18T18:43:46.174Z,6.10
2023-02-18T18:46:13.566Z,6.35
2023-02-18T18:48:40.515Z,6.07
2023-02-18T18:51:07.781Z,5.25
2023-02-18T18:53:36.220Z,5.30
2023-02-18T18:56:06.220Z,5.57
2023-02-18T18:58:35.578Z,4.25
2023-02-18T19:01:04.461Z,4.03
2023-02-18T19:03:33.439Z,3.95
2023-02-18T19:06:00.374Z,4.07
2023-02-18T19:08:27.541Z,3.80
2023-02-18T19:10:56.320Z,4.05
2023-02-18T19:13:27.734Z,4.07
2023-02-18T19:16:04.975Z,4.07
2023-02-18T19:18:33.758Z,3.72
2023-02-18T19:21:02.008Z,3.85
2023-02-18T19:23:28.981Z,3.72
2023-02-18T19:25:57.615Z,3.33
2023-02-18T19:28:24.716Z,3.20
2023-02-18T19:30:54.432Z,2.30
2023-02-18T19:33:21.455Z,2.28
2023-02-18T19:35:48.623Z,2.50
2023-02-18T19:38:19.209Z,2.33
2023-02-18T19:40:46.797Z,2.40
2023-02-18T19:43:14.147Z,5.00
2023-02-18T19:45:47.484Z,2.95
2023-02-18T19:48:16.066Z,2.75
2023-02-18T19:50:43.554Z,2.90
2023-02-18T19:53:10.946Z,2.90
2023-02-18T19:55:39.326Z,4.25
2023-02-18T19:58:06.852Z,3.00
2023-02-18T20:00:33.767Z,3.05
2023-02-18T20:03:00.799Z,2.67
2023-02-18T20:05:27.990Z,2.90
2023-02-18T20:07:54.908Z,2.70
2023-02-18T20:10:22.155Z,2.55
2023-02-18T20:12:53.610Z,2.50
2023-02-18T20:15:21.213Z,2.72
2023-02-18T20:17:48.152Z,3.03
2023-02-18T20:20:15.154Z,2.92
2023-02-18T20:22:42.090Z,2.60
2023-02-18T20:25:09.340Z,2.88
2023-02-18T20:27:39.634Z,2.67
2023-02-18T20:30:11.045Z,2.78
2023-02-18T20:32:38.379Z,3.28
2023-02-18T20:35:06.364Z,2.60
2023-02-18T20:37:34.246Z,2.28
2023-02-18T20:40:01.353Z,2.30
2023-02-18T20:42:28.232Z,2.47
2023-02-18T20:44:55.301Z,2.70
2023-02-18T20:47:22.484Z,2.97
2023-02-18T20:49:49.485Z,2.72
2023-02-18T20:52:16.469Z,2.80
2023-02-18T20:54:43.389Z,2.70
2023-02-18T20:57:10.426Z,3.05
2023-02-18T20:59:37.623Z,3.35
2023-02-18T21:02:07.278Z,3.40
2023-02-18T21:04:34.313Z,3.35
2023-02-18T21:07:01.208Z,3.50
2023-02-18T21:09:28.063Z,3.28
2023-02-18T21:11:54.966Z,2.92
2023-02-18T21:14:21.938Z,3.15
2023-02-18T21:16:48.938Z,3.85
2023-02-18T21:19:17.235Z,3.13
2023-02-18T21:21:45.243Z,3.67
2023-02-18T21:24:12.261Z,3.72
2023-02-18T21:26:39.595Z,3.70
2023-02-18T21:29:08.256Z,3.88
2023-02-18T21:31:40.460Z,3.63
2023-02-18T21:36:35.152Z,2.83
2023-02-18T21:39:04.518Z,3.22
2023-02-18T21:41:31.681Z,3.50
2023-02-18T21:43:58.789Z,3.63
2023-02-18T21:46:30.985Z,4.20
2023-02-18T21:51:58.018Z,3.45
2023-02-18T21:54:36.170Z,3.72
2023-02-18T21:57:04.943Z,3.85
2023-02-18T21:59:33.233Z,3.80
2023-02-18T22:02:00.621Z,4.32
2023-02-18T22:04:29.329Z,3.33
2023-02-18T22:06:56.343Z,4.22
2023-02-18T22:09:24.278Z,4.22
2023-02-18T22:11:51.404Z,3.20
2023-02-18T22:14:18.597Z,4.18
2023-02-18T22:16:45.616Z,3.50
2023-02-18T22:19:14.005Z,3.53
2023-02-18T22:21:41.902Z,3.53
2023-02-18T22:24:15.787Z,4.55
2023-02-18T22:26:44.971Z,3.22
2023-02-18T22:29:13.542Z,3.60
2023-02-18T22:31:40.891Z,4.10
2023-02-18T22:34:11.091Z,3.95
2023-02-18T22:36:38.212Z,3.72
2023-02-18T22:39:05.814Z,3.83
2023-02-18T22:41:33.624Z,4.22
2023-02-18T22:44:06.234Z,4.32
2023-02-18T22:46:34.365Z,3.67
2023-02-18T22:49:02.595Z,3.78
2023-02-18T22:51:33.330Z,4.07
2023-02-18T22:54:01.993Z,4.72
2023-02-18T22:56:32.168Z,4.30
2023-02-18T22:58:59.241Z,4.35
2023-02-18T23:01:37.677Z,3.88
2023-02-18T23:04:09.894Z,4.65
2023-02-18T23:09:07.351Z,4.60
2023-02-18T23:11:34.825Z,4.32
2023-02-18T23:14:18.420Z,3.75
2023-02-18T23:17:05.163Z,3.50
2023-02-18T23:19:32.713Z,3.63
2023-02-18T23:21:59.848Z,3.13
2023-02-18T23:24:31.178Z,4.32
2023-02-18T23:27:00.231Z,4.13
2023-02-18T23:29:27.145Z,4.00
2023-02-18T23:31:54.133Z,4.10
2023-02-18T23:34:21.163Z,3.70
2023-02-18T23:36:48.295Z,3.55
2023-02-18T23:39:21.243Z,3.00
2023-02-18T23:41:48.797Z,3.40
2023-02-18T23:44:18.313Z,3.10
2023-02-18T23:46:45.217Z,3.30
2023-02-18T23:49:17.876Z,3.10
2023-02-18T23:51:44.956Z,3.53
2023-02-18T23:54:11.898Z,3.35
2023-02-18T23:56:39.093Z,3.65
2023-02-18T23:59:08.777Z,3.40
